sensor_id;sensor_type;location;lat;lon;timestamp;P1;durP1;ratioP1;P2;durP2;ratioP2
4812;SDS011;2420;51.202;8.698;2023-03-01T00:01:12;11.73;;;7.22;;
4812;SDS011;2420;51.202;8.698;2023-03-01T00:03:39;15.13;;;8.55;;
4812;SDS011;2420;51.202;8.698;2023-03-01T00:06:06;13.77;;;7.80;;
4812;SDS011;2420;51.202;8.698;2023-03-01T00:08:32;13.25;;;7.28;;
4812;SDS011;2420;51.202;8.698;2023-03-01T00:11:06;12.55;;;7.53;;
4812;SDS011;2420;51.202;8.698;2023-03-01T00:13:35;14.20;;;7.55;;
4812;SDS011;2420;51.202;8.698;2023-03-01T00:16:01;16.73;;;8.25;;
4812;SDS011;2420;51.202;8.698;2023-03-01T00:18:31;13.60;;;8.10;;
4812;SDS011;2420;51.202;8.698;2023-03-01T00:20:57;12.77;;;7.50;;
4812;SDS011;2420;51.202;8.698;2023-03-01T00:23:23;13.55;;;7.40;;
4812;SDS011;2420;51.202;8.698;2023-03-01T00:25:49;14.50;;;7.78;;
4812;SDS011;2420;51.202;8.698;2023-03-01T00:28:15;16.38;;;8.32;;
4812;SDS011;2420;51.202;8.698;2023-03-01T00:30:41;13.75;;;7.97;;
4812;SDS011;2420;51.202;8.698;2023-03-01T00:33:07;13.55;;;8.15;;
4812;SDS011;2420;51.202;8.698;2023-03-01T00:35:33;13.38;;;7.47;;
4812;SDS011;2420;51.202;8.698;2023-03-01T00:37:59;13.48;;;7.25;;
4812;SDS011;2420;51.202;8.698;2023-03-01T00:40:25;13.93;;;7.93;;
4812;SDS011;2420;51.202;8.698;2023-03-01T00:42:54;14.68;;;7.85;;
4812;SDS011;2420;51.202;8.698;2023-03-01T00:45:21;13.68;;;7.57;;
4812;SDS011;2420;51.202;8.698;2023-03-01T00:47:47;13.80;;;7.97;;
4812;SDS011;2420;51.202;8.698;2023-03-01T00:50:14;14.57;;;7.57;;
4812;SDS011;2420;51.202;8.698;2023-03-01T00:52:39;11.50;;;6.88;;
4812;SDS011;2420;51.202;8.698;2023-03-01T00:55:05;15.05;;;7.80;;
4812;SDS011;2420;51.202;8.698;2023-03-01T00:57:31;11.52;;;7.13;;
4812;SDS011;2420;51.202;8.698;2023-03-01T00:59:57;14.05;;;8.25;;
4812;SDS011;2420;51.202;8.698;2023-03-01T01:02:23;14.50;;;7.57;;
4812;SDS011;2420;51.202;8.698;2023-03-01T01:04:48;13.65;;;7.50;;
4812;SDS011;2420;51.202;8.698;2023-03-01T01:07:14;16.10;;;8.38;;
4812;SDS011;2420;51.202;8.698;2023-03-01T01:09:40;14.40;;;8.05;;
4812;SDS011;2420;51.202;8.698;2023-03-01T01:12:06;19.95;;;8.02;;
4812;SDS011;2420;51.202;8.698;2023-03-01T01:14:32;14.10;;;7.55;;
4812;SDS011;2420;51.202;8.698;2023-03-01T01:16:58;12.82;;;7.53;;
4812;SDS011;2420;51.202;8.698;2023-03-01T01:19:24;15.27;;;8.20;;
4812;SDS011;2420;51.202;8.698;2023-03-01T01:21:50;12.77;;;7.65;;
4812;SDS011;2420;51.202;8.698;2023-03-01T01:24:16;13.02;;;7.07;;
4812;SDS011;2420;51.202;8.698;2023-03-01T01:26:42;14.55;;;7.30;;
4812;SDS011;2420;51.202;8.698;2023-03-01T01:29:08;14.25;;;8.13;;
4812;SDS011;2420;51.202;8.698;2023-03-01T01:31:35;13.23;;;7.88;;
4812;SDS011;2420;51.202;8.698;2023-03-01T01:34:03;11.48;;;7.55;;
4812;SDS011;2420;51.202;8.698;2023-03-01T01:36:29;14.65;;;8.30;;
4812;SDS011;2420;51.202;8.698;2023-03-01T01:38:55;13.88;;;7.72;;
4812;SDS011;2420;51.202;8.698;2023-03-01T01:41:22;14.23;;;8.15;;
4812;SDS011;2420;51.202;8.698;2023-03-01T01:43:49;13.88;;;7.63;;
4812;SDS011;2420;51.202;8.698;2023-03-01T01:46:46;14.60;;;8.20;;
4812;SDS011;2420;51.202;8.698;2023-03-01T01:49:32;15.25;;;7.93;;
4812;SDS011;2420;51.202;8.698;2023-03-01T01:54:42;15.07;;;7.95;;
4812;SDS011;2420;51.202;8.698;2023-03-01T01:57:19;15.00;;;7.75;;
4812;SDS011;2420;51.202;8.698;2023-03-01T01:59:52;13.20;;;7.47;;
4812;SDS011;2420;51.202;8.698;2023-03-01T02:02:21;14.38;;;7.55;;
4812;SDS011;2420;51.202;8.698;2023-03-01T02:04:48;16.05;;;7.95;;
4812;SDS011;2420;51.202;8.698;2023-03-01T02:07:18;14.35;;;8.20;;
4812;SDS011;2420;51.202;8.698;2023-03-01T02:09:47;16.83;;;7.90;;
4812;SDS011;2420;51.202;8.698;2023-03-01T02:12:15;13.20;;;7.43;;
4812;SDS011;2420;51.202;8.698;2023-03-01T02:14:43;13.95;;;7.45;;
4812;SDS011;2420;51.202;8.698;2023-03-01T02:17:09;14.23;;;7.82;;
4812;SDS011;2420;51.202;8.698;2023-03-01T02:22:32;16.38;;;8.48;;
4812;SDS011;2420;51.202;8.698;2023-03-01T02:25:33;13.75;;;7.88;;
4812;SDS011;2420;51.202;8.698;2023-03-01T02:30:43;16.67;;;7.75;;
4812;SDS011;2420;51.202;8.698;2023-03-01T02:33:30;13.68;;;7.78;;
4812;SDS011;2420;51.202;8.698;2023-03-01T02:35:57;16.35;;;7.88;;
4812;SDS011;2420;51.202;8.698;2023-03-01T02:38:25;14.80;;;8.15;;
4812;SDS011;2420;51.202;8.698;2023-03-01T02:40:51;15.60;;;7.93;;
4812;SDS011;2420;51.202;8.698;2023-03-01T02:43:19;15.95;;;8.27;;
4812;SDS011;2420;51.202;8.698;2023-03-01T02:45:51;16.67;;;8.63;;
4812;SDS011;2420;51.202;8.698;2023-03-01T02:48:18;18.67;;;8.50;;
4812;SDS011;2420;51.202;8.698;2023-03-01T02:53:41;15.25;;;8.48;;
4812;SDS011;2420;51.202;8.698;2023-03-01T02:56:24;14.77;;;8.30;;
4812;SDS011;2420;51.202;8.698;2023-03-01T02:58:50;17.73;;;8.57;;
4812;SDS011;2420;51.202;8.698;2023-03-01T03:01:17;15.27;;;7.88;;
4812;SDS011;2420;51.202;8.698;2023-03-01T03:03:44;14.65;;;7.88;;
4812;SDS011;2420;51.202;8.698;2023-03-01T03:06:10;15.93;;;8.02;;
4812;SDS011;2420;51.202;8.698;2023-03-01T03:08:35;15.75;;;8.48;;
4812;SDS011;2420;51.202;8.698;2023-03-01T03:11:01;16.35;;;8.15;;
4812;SDS011;2420;51.202;8.698;2023-03-01T03:13:27;15.00;;;8.80;;
4812;SDS011;2420;51.202;8.698;2023-03-01T03:15:53;13.68;;;8.02;;
4812;SDS011;2420;51.202;8.698;2023-03-01T03:18:23;16.65;;;8.57;;
4812;SDS011;2420;51.202;8.698;2023-03-01T03:20:51;16.83;;;8.65;;
4812;SDS011;2420;51.202;8.698;2023-03-01T03:23:18;15.15;;;8.13;;
4812;SDS011;2420;51.202;8.698;2023-03-01T03:25:47;14.55;;;8.57;;
4812;SDS011;2420;51.202;8.698;2023-03-01T03:28:14;17.35;;;8.95;;
4812;SDS011;2420;51.202;8.698;2023-03-01T03:30:41;16.58;;;7.78;;
4812;SDS011;2420;51.202;8.698;2023-03-01T03:33:08;16.00;;;8.65;;
4812;SDS011;2420;51.202;8.698;2023-03-01T03:35:38;13.93;;;7.88;;
4812;SDS011;2420;51.202;8.698;2023-03-01T03:38:10;16.30;;;8.48;;
4812;SDS011;2420;51.202;8.698;2023-03-01T03:40:42;14.65;;;7.82;;
4812;SDS011;2420;51.202;8.698;2023-03-01T03:43:11;20.53;;;9.03;;
4812;SDS011;2420;51.202;8.698;2023-03-01T03:45:39;19.45;;;8.43;;
4812;SDS011;2420;51.202;8.698;2023-03-01T03:48:05;16.60;;;8.40;;
4812;SDS011;2420;51.202;8.698;2023-03-01T03:50:32;17.05;;;8.30;;
4812;SDS011;2420;51.202;8.698;2023-03-01T03:53:02;14.82;;;7.85;;
4812;SDS011;2420;51.202;8.698;2023-03-01T03:55:29;14.50;;;7.72;;
4812;SDS011;2420;51.202;8.698;2023-03-01T03:57:56;14.10;;;8.17;;
4812;SDS011;2420;51.202;8.698;2023-03-01T04:00:25;13.73;;;8.02;;
4812;SDS011;2420;51.202;8.698;2023-03-01T04:02:51;17.73;;;9.10;;
4812;SDS011;2420;51.202;8.698;2023-03-01T04:05:21;16.48;;;8.40;;
4812;SDS011;2420;51.202;8.698;2023-03-01T04:07:47;15.63;;;8.10;;
4812;SDS011;2420;51.202;8.698;2023-03-01T04:10:15;15.82;;;7.85;;
4812;SDS011;2420;51.202;8.698;2023-03-01T04:12:41;14.02;;;8.23;;
4812;SDS011;2420;51.202;8.698;2023-03-01T04:15:08;18.95;;;9.02;;
4812;SDS011;2420;51.202;8.698;2023-03-01T04:17:39;16.40;;;8.70;;
4812;SDS011;2420;51.202;8.698;2023-03-01T04:20:06;16.95;;;7.80;;
4812;SDS011;2420;51.202;8.698;2023-03-01T04:22:34;15.23;;;8.05;;
4812;SDS011;2420;51.202;8.698;2023-03-01T04:25:00;16.35;;;8.57;;
4812;SDS011;2420;51.202;8.698;2023-03-01T04:27:26;16.60;;;8.63;;
4812;SDS011;2420;51.202;8.698;2023-03-01T04:29:52;15.38;;;8.50;;
4812;SDS011;2420;51.202;8.698;2023-03-01T04:32:18;14.88;;;8.68;;
4812;SDS011;2420;51.202;8.698;2023-03-01T04:34:43;16.98;;;8.85;;
4812;SDS011;2420;51.202;8.698;2023-03-01T04:37:09;16.88;;;8.57;;
4812;SDS011;2420;51.202;8.698;2023-03-01T04:39:36;17.42;;;8.90;;
4812;SDS011;2420;51.202;8.698;2023-03-01T04:42:10;15.85;;;8.75;;
4812;SDS011;2420;51.202;8.698;2023-03-01T04:44:39;17.58;;;9.35;;
4812;SDS011;2420;51.202;8.698;2023-03-01T04:47:04;17.40;;;8.88;;
4812;SDS011;2420;51.202;8.698;2023-03-01T04:49:31;15.05;;;8.30;;
4812;SDS011;2420;51.202;8.698;2023-03-01T04:51:56;15.48;;;8.70;;
4812;SDS011;2420;51.202;8.698;2023-03-01T04:54:27;17.00;;;8.88;;
4812;SDS011;2420;51.202;8.698;2023-03-01T04:56:53;16.85;;;9.25;;
4812;SDS011;2420;51.202;8.698;2023-03-01T04:59:19;15.10;;;8.50;;
4812;SDS011;2420;51.202;8.698;2023-03-01T05:01:48;16.25;;;8.85;;
4812;SDS011;2420;51.202;8.698;2023-03-01T05:04:21;16.98;;;8.95;;
4812;SDS011;2420;51.202;8.698;2023-03-01T05:06:47;15.40;;;8.32;;
4812;SDS011;2420;51.202;8.698;2023-03-01T05:09:13;16.00;;;8.73;;
4812;SDS011;2420;51.202;8.698;2023-03-01T05:11:38;15.27;;;8.40;;
4812;SDS011;2420;51.202;8.698;2023-03-01T05:14:05;13.30;;;8.27;;
4812;SDS011;2420;51.202;8.698;2023-03-01T05:16:31;15.23;;;8.25;;
4812;SDS011;2420;51.202;8.698;2023-03-01T05:18:57;17.48;;;8.82;;
4812;SDS011;2420;51.202;8.698;2023-03-01T05:21:23;17.08;;;8.45;;
4812;SDS011;2420;51.202;8.698;2023-03-01T05:23:49;18.45;;;9.60;;
4812;SDS011;2420;51.202;8.698;2023-03-01T05:26:16;20.23;;;9.40;;
4812;SDS011;2420;51.202;8.698;2023-03-01T05:28:43;18.63;;;8.88;;
4812;SDS011;2420;51.202;8.698;2023-03-01T05:31:09;16.67;;;8.80;;
4812;SDS011;2420;51.202;8.698;2023-03-01T05:33:38;18.05;;;8.68;;
4812;SDS011;2420;51.202;8.698;2023-03-01T05:36:05;20.55;;;8.95;;
4812;SDS011;2420;51.202;8.698;2023-03-01T05:38:32;18.50;;;9.15;;
4812;SDS011;2420;51.202;8.698;2023-03-01T05:40:58;14.48;;;8.68;;
4812;SDS011;2420;51.202;8.698;2023-03-01T05:43:24;15.02;;;8.70;;
4812;SDS011;2420;51.202;8.698;2023-03-01T05:45:50;15.13;;;8.35;;
4812;SDS011;2420;51.202;8.698;2023-03-01T05:48:16;15.10;;;8.25;;
4812;SDS011;2420;51.202;8.698;2023-03-01T05:50:44;13.82;;;8.20;;
4812;SDS011;2420;51.202;8.698;2023-03-01T05:53:17;15.82;;;8.45;;
4812;SDS011;2420;51.202;8.698;2023-03-01T05:55:46;15.25;;;8.00;;
4812;SDS011;2420;51.202;8.698;2023-03-01T05:58:13;13.02;;;7.82;;
4812;SDS011;2420;51.202;8.698;2023-03-01T06:00:40;14.38;;;7.93;;
4812;SDS011;2420;51.202;8.698;2023-03-01T06:03:09;18.42;;;8.45;;
4812;SDS011;2420;51.202;8.698;2023-03-01T06:05:35;13.90;;;7.68;;
4812;SDS011;2420;51.202;8.698;2023-03-01T06:08:01;14.93;;;8.27;;
4812;SDS011;2420;51.202;8.698;2023-03-01T06:10:28;14.57;;;8.20;;
4812;SDS011;2420;51.202;8.698;2023-03-01T06:12:56;15.43;;;8.30;;
4812;SDS011;2420;51.202;8.698;2023-03-01T06:15:23;13.65;;;7.90;;
4812;SDS011;2420;51.202;8.698;2023-03-01T06:17:49;16.95;;;8.45;;
4812;SDS011;2420;51.202;8.698;2023-03-01T06:20:16;20.30;;;9.05;;
4812;SDS011;2420;51.202;8.698;2023-03-01T06:22:46;15.25;;;8.20;;
4812;SDS011;2420;51.202;8.698;2023-03-01T06:25:14;16.98;;;9.15;;
4812;SDS011;2420;51.202;8.698;2023-03-01T06:27:41;17.27;;;8.73;;
4812;SDS011;2420;51.202;8.698;2023-03-01T06:30:07;16.60;;;8.63;;
4812;SDS011;2420;51.202;8.698;2023-03-01T06:32:35;17.05;;;9.10;;
4812;SDS011;2420;51.202;8.698;2023-03-01T06:35:02;15.75;;;8.40;;
4812;SDS011;2420;51.202;8.698;2023-03-01T06:37:28;15.53;;;8.27;;
4812;SDS011;2420;51.202;8.698;2023-03-01T06:39:57;19.70;;;8.70;;
4812;SDS011;2420;51.202;8.698;2023-03-01T06:42:22;14.30;;;8.02;;
4812;SDS011;2420;51.202;8.698;2023-03-01T06:44:48;16.27;;;8.03;;
4812;SDS011;2420;51.202;8.698;2023-03-01T06:47:13;14.88;;;7.72;;
4812;SDS011;2420;51.202;8.698;2023-03-01T06:49:39;16.58;;;8.35;;
4812;SDS011;2420;51.202;8.698;2023-03-01T06:52:08;16.08;;;8.60;;
4812;SDS011;2420;51.202;8.698;2023-03-01T06:54:33;15.37;;;8.13;;
4812;SDS011;2420;51.202;8.698;2023-03-01T06:56:59;13.93;;;8.18;;
4812;SDS011;2420;51.202;8.698;2023-03-01T06:59:24;16.55;;;7.97;;
4812;SDS011;2420;51.202;8.698;2023-03-01T07:01:50;14.60;;;8.20;;
4812;SDS011;2420;51.202;8.698;2023-03-01T07:04:15;14.32;;;7.55;;
4812;SDS011;2420;51.202;8.698;2023-03-01T07:06:41;13.85;;;7.50;;
4812;SDS011;2420;51.202;8.698;2023-03-01T07:09:06;13.35;;;7.55;;
4812;SDS011;2420;51.202;8.698;2023-03-01T07:11:32;14.00;;;7.78;;
4812;SDS011;2420;51.202;8.698;2023-03-01T07:13:58;12.70;;;7.10;;
4812;SDS011;2420;51.202;8.698;2023-03-01T07:16:24;13.93;;;7.07;;
4812;SDS011;2420;51.202;8.698;2023-03-01T07:18:50;11.73;;;7.25;;
4812;SDS011;2420;51.202;8.698;2023-03-01T07:21:16;15.88;;;7.22;;
4812;SDS011;2420;51.202;8.698;2023-03-01T07:23:41;13.27;;;7.60;;
4812;SDS011;2420;51.202;8.698;2023-03-01T07:26:07;16.10;;;8.57;;
4812;SDS011;2420;51.202;8.698;2023-03-01T07:28:33;15.13;;;8.07;;
4812;SDS011;2420;51.202;8.698;2023-03-01T07:31:03;14.02;;;7.32;;
4812;SDS011;2420;51.202;8.698;2023-03-01T07:33:30;13.38;;;7.50;;
4812;SDS011;2420;51.202;8.698;2023-03-01T07:35:57;14.75;;;7.07;;
4812;SDS011;2420;51.202;8.698;2023-03-01T07:38:23;13.88;;;7.10;;
4812;SDS011;2420;51.202;8.698;2023-03-01T07:40:49;13.18;;;6.75;;
4812;SDS011;2420;51.202;8.698;2023-03-01T07:43:14;13.65;;;7.35;;
4812;SDS011;2420;51.202;8.698;2023-03-01T07:45:40;13.98;;;7.80;;
4812;SDS011;2420;51.202;8.698;2023-03-01T07:48:05;16.08;;;7.38;;
4812;SDS011;2420;51.202;8.698;2023-03-01T07:50:31;13.35;;;7.00;;
4812;SDS011;2420;51.202;8.698;2023-03-01T07:52:56;12.38;;;7.03;;
4812;SDS011;2420;51.202;8.698;2023-03-01T07:55:22;14.38;;;6.82;;
4812;SDS011;2420;51.202;8.698;2023-03-01T07:57:47;13.15;;;7.45;;
4812;SDS011;2420;51.202;8.698;2023-03-01T08:00:13;12.40;;;7.75;;
4812;SDS011;2420;51.202;8.698;2023-03-01T08:02:39;13.40;;;7.35;;
4812;SDS011;2420;51.202;8.698;2023-03-01T08:05:06;14.85;;;7.70;;
4812;SDS011;2420;51.202;8.698;2023-03-01T08:07:33;11.70;;;7.03;;
4812;SDS011;2420;51.202;8.698;2023-03-01T08:09:59;12.98;;;7.80;;
4812;SDS011;2420;51.202;8.698;2023-03-01T08:12:25;12.50;;;7.38;;
4812;SDS011;2420;51.202;8.698;2023-03-01T08:14:52;13.75;;;7.50;;
4812;SDS011;2420;51.202;8.698;2023-03-01T08:17:18;12.52;;;7.15;;
4812;SDS011;2420;51.202;8.698;2023-03-01T08:19:44;15.00;;;8.25;;
4812;SDS011;2420;51.202;8.698;2023-03-01T08:22:10;17.52;;;10.65;;
4812;SDS011;2420;51.202;8.698;2023-03-01T08:24:35;13.60;;;7.72;;
4812;SDS011;2420;51.202;8.698;2023-03-01T08:27:01;13.20;;;7.72;;
4812;SDS011;2420;51.202;8.698;2023-03-01T08:29:27;12.48;;;7.40;;
4812;SDS011;2420;51.202;8.698;2023-03-01T08:31:55;13.88;;;8.30;;
4812;SDS011;2420;51.202;8.698;2023-03-01T08:34:21;15.98;;;8.35;;
4812;SDS011;2420;51.202;8.698;2023-03-01T08:36:46;13.80;;;7.47;;
4812;SDS011;2420;51.202;8.698;2023-03-01T08:39:13;14.15;;;7.75;;
4812;SDS011;2420;51.202;8.698;2023-03-01T08:41:40;13.57;;;7.45;;
4812;SDS011;2420;51.202;8.698;2023-03-01T08:44:07;12.77;;;7.25;;
4812;SDS011;2420;51.202;8.698;2023-03-01T08:46:35;13.57;;;7.07;;
4812;SDS011;2420;51.202;8.698;2023-03-01T08:49:06;9.13;;;6.15;;
4812;SDS011;2420;51.202;8.698;2023-03-01T08:51:32;13.98;;;7.35;;
4812;SDS011;2420;51.202;8.698;2023-03-01T08:54:02;11.93;;;7.43;;
4812;SDS011;2420;51.202;8.698;2023-03-01T08:56:31;11.35;;;6.57;;
4812;SDS011;2420;51.202;8.698;2023-03-01T08:58:57;11.18;;;6.60;;
4812;SDS011;2420;51.202;8.698;2023-03-01T09:01:23;11.85;;;6.88;;
4812;SDS011;2420;51.202;8.698;2023-03-01T09:03:48;11.07;;;7.15;;
4812;SDS011;2420;51.202;8.698;2023-03-01T09:06:14;13.82;;;7.47;;
4812;SDS011;2420;51.202;8.698;2023-03-01T09:08:42;13.38;;;7.43;;
4812;SDS011;2420;51.202;8.698;2023-03-01T09:11:10;13.13;;;7.28;;
4812;SDS011;2420;51.202;8.698;2023-03-01T09:13:37;12.30;;;7.47;;
4812;SDS011;2420;51.202;8.698;2023-03-01T09:16:04;12.00;;;6.82;;
4812;SDS011;2420;51.202;8.698;2023-03-01T09:18:31;12.85;;;7.35;;
4812;SDS011;2420;51.202;8.698;2023-03-01T09:21:04;14.80;;;8.15;;
4812;SDS011;2420;51.202;8.698;2023-03-01T09:23:34;14.52;;;7.70;;
4812;SDS011;2420;51.202;8.698;2023-03-01T09:26:09;13.70;;;7.78;;
4812;SDS011;2420;51.202;8.698;2023-03-01T09:28:37;11.68;;;7.05;;
4812;SDS011;2420;51.202;8.698;2023-03-01T09:31:03;15.07;;;7.95;;
4812;SDS011;2420;51.202;8.698;2023-03-01T09:33:29;13.88;;;7.25;;
4812;SDS011;2420;51.202;8.698;2023-03-01T09:35:58;13.45;;;7.40;;
4812;SDS011;2420;51.202;8.698;2023-03-01T09:38:32;12.05;;;7.70;;
4812;SDS011;2420;51.202;8.698;2023-03-01T09:40:58;14.55;;;6.93;;
4812;SDS011;2420;51.202;8.698;2023-03-01T09:46:19;14.70;;;8.85;;
4812;SDS011;2420;51.202;8.698;2023-03-01T09:51:27;14.10;;;7.72;;
4812;SDS011;2420;51.202;8.698;2023-03-01T09:53:56;12.65;;;7.35;;
4812;SDS011;2420;51.202;8.698;2023-03-01T09:56:46;15.10;;;8.82;;
4812;SDS011;2420;51.202;8.698;2023-03-01T09:59:39;12.43;;;6.53;;
4812;SDS011;2420;51.202;8.698;2023-03-01T10:10:39;12.75;;;7.03;;
4812;SDS011;2420;51.202;8.698;2023-03-01T10:13:17;12.27;;;6.65;;
4812;SDS011;2420;51.202;8.698;2023-03-01T10:15:49;16.92;;;7.47;;
4812;SDS011;2420;51.202;8.698;2023-03-01T10:18:20;12.73;;;7.07;;
4812;SDS011;2420;51.202;8.698;2023-03-01T10:21:01;12.38;;;7.15;;
4812;SDS011;2420;51.202;8.698;2023-03-01T10:23:34;14.68;;;7.97;;
4812;SDS011;2420;51.202;8.698;2023-03-01T10:29:02;13.80;;;7.53;;
4812;SDS011;2420;51.202;8.698;2023-03-01T10:31:43;11.95;;;7.22;;
4812;SDS011;2420;51.202;8.698;2023-03-01T10:34:12;11.32;;;6.82;;
4812;SDS011;2420;51.202;8.698;2023-03-01T10:36:43;11.95;;;7.35;;
4812;SDS011;2420;51.202;8.698;2023-03-01T10:39:14;12.10;;;6.97;;
4812;SDS011;2420;51.202;8.698;2023-03-01T10:41:58;13.00;;;7.35;;
4812;SDS011;2420;51.202;8.698;2023-03-01T10:44:45;13.88;;;7.32;;
4812;SDS011;2420;51.202;8.698;2023-03-01T10:47:22;12.20;;;6.60;;
4812;SDS011;2420;51.202;8.698;2023-03-01T10:52:20;13.20;;;7.28;;
4812;SDS011;2420;51.202;8.698;2023-03-01T10:54:51;11.38;;;7.30;;
4812;SDS011;2420;51.202;8.698;2023-03-01T10:57:32;15.15;;;7.65;;
4812;SDS011;2420;51.202;8.698;2023-03-01T11:02:45;11.90;;;6.80;;
4812;SDS011;2420;51.202;8.698;2023-03-01T11:05:23;13.32;;;7.88;;
4812;SDS011;2420;51.202;8.698;2023-03-01T11:07:53;13.63;;;6.80;;
4812;SDS011;2420;51.202;8.698;2023-03-01T11:12:54;11.55;;;6.72;;
4812;SDS011;2420;51.202;8.698;2023-03-01T11:15:57;13.52;;;7.32;;
4812;SDS011;2420;51.202;8.698;2023-03-01T11:18:24;12.20;;;7.53;;
4812;SDS011;2420;51.202;8.698;2023-03-01T11:20:51;12.80;;;7.47;;
4812;SDS011;2420;51.202;8.698;2023-03-01T11:23:19;10.45;;;6.95;;
4812;SDS011;2420;51.202;8.698;2023-03-01T11:25:48;12.20;;;8.70;;
4812;SDS011;2420;51.202;8.698;2023-03-01T11:28:20;14.30;;;7.72;;
4812;SDS011;2420;51.202;8.698;2023-03-01T11:30:49;12.75;;;7.45;;
4812;SDS011;2420;51.202;8.698;2023-03-01T11:33:37;22.42;;;7.70;;
4812;SDS011;2420;51.202;8.698;2023-03-01T11:36:25;12.55;;;6.78;;
4812;SDS011;2420;51.202;8.698;2023-03-01T11:38:56;11.30;;;6.97;;
4812;SDS011;2420;51.202;8.698;2023-03-01T11:41:28;11.15;;;7.07;;
4812;SDS011;2420;51.202;8.698;2023-03-01T11:44:16;11.98;;;7.22;;
4812;SDS011;2420;51.202;8.698;2023-03-01T11:50:01;9.65;;;6.55;;
4812;SDS011;2420;51.202;8.698;2023-03-01T11:53:00;11.27;;;6.82;;
4812;SDS011;2420;51.202;8.698;2023-03-01T11:55:51;13.20;;;7.13;;
4812;SDS011;2420;51.202;8.698;2023-03-01T12:01:02;11.32;;;6.50;;
4812;SDS011;2420;51.202;8.698;2023-03-01T12:09:15;10.57;;;6.93;;
4812;SDS011;2420;51.202;8.698;2023-03-01T12:17:25;10.75;;;6.65;;
4812;SDS011;2420;51.202;8.698;2023-03-01T12:20:07;10.90;;;6.60;;
4812;SDS011;2420;51.202;8.698;2023-03-01T12:28:32;14.35;;;9.07;;
4812;SDS011;2420;51.202;8.698;2023-03-01T12:34:08;10.48;;;6.82;;
4812;SDS011;2420;51.202;8.698;2023-03-01T12:50:59;10.77;;;7.60;;
4812;SDS011;2420;51.202;8.698;2023-03-01T12:53:39;11.65;;;6.95;;
4812;SDS011;2420;51.202;8.698;2023-03-01T12:56:09;10.77;;;6.30;;
4812;SDS011;2420;51.202;8.698;2023-03-01T13:09:55;10.93;;;6.32;;
4812;SDS011;2420;51.202;8.698;2023-03-01T13:15:31;11.25;;;6.57;;
4812;SDS011;2420;51.202;8.698;2023-03-01T13:20:46;15.00;;;6.18;;
4812;SDS011;2420;51.202;8.698;2023-03-01T13:30:59;12.18;;;6.40;;
4812;SDS011;2420;51.202;8.698;2023-03-01T13:35:52;10.07;;;5.97;;
4812;SDS011;2420;51.202;8.698;2023-03-01T13:38:55;12.80;;;6.43;;
4812;SDS011;2420;51.202;8.698;2023-03-01T13:41:48;9.50;;;6.00;;
4812;SDS011;2420;51.202;8.698;2023-03-01T13:44:24;9.48;;;6.20;;
4812;SDS011;2420;51.202;8.698;2023-03-01T13:49:35;11.05;;;6.03;;
4812;SDS011;2420;51.202;8.698;2023-03-01T13:52:21;9.57;;;5.72;;
4812;SDS011;2420;51.202;8.698;2023-03-01T13:54:57;9.75;;;5.93;;
4812;SDS011;2420;51.202;8.698;2023-03-01T13:57:24;10.57;;;5.88;;
4812;SDS011;2420;51.202;8.698;2023-03-01T13:59:54;11.63;;;6.32;;
4812;SDS011;2420;51.202;8.698;2023-03-01T14:02:20;10.93;;;6.43;;
4812;SDS011;2420;51.202;8.698;2023-03-01T14:04:55;9.80;;;6.18;;
4812;SDS011;2420;51.202;8.698;2023-03-01T14:07:22;10.07;;;6.20;;
4812;SDS011;2420;51.202;8.698;2023-03-01T14:09:55;10.57;;;6.18;;
4812;SDS011;2420;51.202;8.698;2023-03-01T14:15:15;12.35;;;6.20;;
4812;SDS011;2420;51.202;8.698;2023-03-01T14:17:52;11.10;;;6.75;;
4812;SDS011;2420;51.202;8.698;2023-03-01T14:20:42;12.60;;;6.35;;
4812;SDS011;2420;51.202;8.698;2023-03-01T14:23:13;10.35;;;6.43;;
4812;SDS011;2420;51.202;8.698;2023-03-01T14:25:46;10.32;;;6.30;;
4812;SDS011;2420;51.202;8.698;2023-03-01T14:30:42;12.00;;;6.45;;
4812;SDS011;2420;51.202;8.698;2023-03-01T14:33:23;10.77;;;6.25;;
4812;SDS011;2420;51.202;8.698;2023-03-01T14:35:52;10.10;;;6.25;;
4812;SDS011;2420;51.202;8.698;2023-03-01T14:38:23;9.80;;;6.40;;
4812;SDS011;2420;51.202;8.698;2023-03-01T14:40:56;10.95;;;6.45;;
4812;SDS011;2420;51.202;8.698;2023-03-01T14:43:26;10.30;;;6.63;;
4812;SDS011;2420;51.202;8.698;2023-03-01T14:45:53;11.63;;;6.53;;
4812;SDS011;2420;51.202;8.698;2023-03-01T14:48:19;11.23;;;6.20;;
4812;SDS011;2420;51.202;8.698;2023-03-01T14:50:45;10.27;;;6.35;;
4812;SDS011;2420;51.202;8.698;2023-03-01T14:53:25;11.48;;;6.57;;
4812;SDS011;2420;51.202;8.698;2023-03-01T14:55:54;12.18;;;6.75;;
4812;SDS011;2420;51.202;8.698;2023-03-01T14:58:23;10.52;;;6.75;;
4812;SDS011;2420;51.202;8.698;2023-03-01T15:00:54;10.52;;;6.40;;
4812;SDS011;2420;51.202;8.698;2023-03-01T15:03:36;9.10;;;5.45;;
4812;SDS011;2420;51.202;8.698;2023-03-01T15:06:06;8.90;;;5.55;;
4812;SDS011;2420;51.202;8.698;2023-03-01T15:08:33;9.10;;;5.68;;
4812;SDS011;2420;51.202;8.698;2023-03-01T15:13:47;10.90;;;6.22;;
4812;SDS011;2420;51.202;8.698;2023-03-01T15:16:13;9.73;;;6.05;;
4812;SDS011;2420;51.202;8.698;2023-03-01T15:18:48;11.05;;;5.63;;
4812;SDS011;2420;51.202;8.698;2023-03-01T15:21:25;9.32;;;5.60;;
4812;SDS011;2420;51.202;8.698;2023-03-01T15:23:57;10.73;;;5.90;;
4812;SDS011;2420;51.202;8.698;2023-03-01T15:26:29;11.52;;;5.90;;
4812;SDS011;2420;51.202;8.698;2023-03-01T15:28:57;12.60;;;6.18;;
4812;SDS011;2420;51.202;8.698;2023-03-01T15:31:25;10.05;;;5.70;;
4812;SDS011;2420;51.202;8.698;2023-03-01T15:34:07;11.00;;;5.47;;
4812;SDS011;2420;51.202;8.698;2023-03-01T15:36:41;10.63;;;5.68;;
4812;SDS011;2420;51.202;8.698;2023-03-01T15:39:30;11.05;;;5.88;;
4812;SDS011;2420;51.202;8.698;2023-03-01T15:45:19;9.15;;;5.35;;
4812;SDS011;2420;51.202;8.698;2023-03-01T15:47:48;9.45;;;4.65;;
4812;SDS011;2420;51.202;8.698;2023-03-01T15:50:26;9.40;;;5.47;;
4812;SDS011;2420;51.202;8.698;2023-03-01T15:52:54;7.72;;;5.28;;
4812;SDS011;2420;51.202;8.698;2023-03-01T15:55:22;8.80;;;5.38;;
4812;SDS011;2420;51.202;8.698;2023-03-01T15:58:00;9.27;;;5.28;;
4812;SDS011;2420;51.202;8.698;2023-03-01T16:00:26;9.38;;;5.72;;
4812;SDS011;2420;51.202;8.698;2023-03-01T16:02:52;11.43;;;5.35;;
4812;SDS011;2420;51.202;8.698;2023-03-01T16:05:22;10.73;;;5.68;;
4812;SDS011;2420;51.202;8.698;2023-03-01T16:07:53;9.95;;;5.60;;
4812;SDS011;2420;51.202;8.698;2023-03-01T16:10:22;8.35;;;4.85;;
4812;SDS011;2420;51.202;8.698;2023-03-01T16:12:49;10.50;;;6.00;;
4812;SDS011;2420;51.202;8.698;2023-03-01T16:15:18;17.23;;;7.90;;
4812;SDS011;2420;51.202;8.698;2023-03-01T16:17:50;15.38;;;7.68;;
4812;SDS011;2420;51.202;8.698;2023-03-01T16:20:17;14.63;;;7.85;;
4812;SDS011;2420;51.202;8.698;2023-03-01T16:22:43;16.80;;;8.73;;
4812;SDS011;2420;51.202;8.698;2023-03-01T16:25:10;16.50;;;8.68;;
4812;SDS011;2420;51.202;8.698;2023-03-01T16:27:37;22.02;;;10.48;;
4812;SDS011;2420;51.202;8.698;2023-03-01T16:30:04;12.52;;;8.00;;
4812;SDS011;2420;51.202;8.698;2023-03-01T16:32:30;17.92;;;9.48;;
4812;SDS011;2420;51.202;8.698;2023-03-01T16:34:56;20.38;;;9.45;;
4812;SDS011;2420;51.202;8.698;2023-03-01T16:37:21;18.92;;;9.85;;
4812;SDS011;2420;51.202;8.698;2023-03-01T16:39:47;16.08;;;8.20;;
4812;SDS011;2420;51.202;8.698;2023-03-01T16:42:15;11.57;;;6.90;;
4812;SDS011;2420;51.202;8.698;2023-03-01T16:44:41;13.80;;;8.07;;
4812;SDS011;2420;51.202;8.698;2023-03-01T16:47:07;15.15;;;7.38;;
4812;SDS011;2420;51.202;8.698;2023-03-01T16:49:32;19.30;;;8.15;;
4812;SDS011;2420;51.202;8.698;2023-03-01T16:51:58;13.02;;;7.32;;
4812;SDS011;2420;51.202;8.698;2023-03-01T16:54:24;18.17;;;8.98;;
4812;SDS011;2420;51.202;8.698;2023-03-01T16:56:49;13.35;;;7.32;;
4812;SDS011;2420;51.202;8.698;2023-03-01T16:59:15;10.82;;;6.90;;
4812;SDS011;2420;51.202;8.698;2023-03-01T17:01:43;11.05;;;6.47;;
4812;SDS011;2420;51.202;8.698;2023-03-01T17:04:12;10.18;;;6.05;;
4812;SDS011;2420;51.202;8.698;2023-03-01T17:06:38;10.88;;;6.28;;
4812;SDS011;2420;51.202;8.698;2023-03-01T17:09:04;10.68;;;5.90;;
4812;SDS011;2420;51.202;8.698;2023-03-01T17:11:29;13.30;;;6.63;;
4812;SDS011;2420;51.202;8.698;2023-03-01T17:13:55;9.07;;;6.05;;